sensor_id;sensor_type;location;lat;lon;timestamp;P1;durP1;ratioP1;P2;durP2;ratioP2
13493;SDS011;6819;50.886;4.332;2023-02-21T00:00:56;28.37;;;13.37;;
13493;SDS011;6819;50.886;4.332;2023-02-21T00:03:41;27.10;;;12.95;;
13493;SDS011;6819;50.886;4.332;2023-02-21T00:06:25;27.87;;;13.37;;
13493;SDS011;6819;50.886;4.332;2023-02-21T00:09:10;30.25;;;14.07;;
13493;SDS011;6819;50.886;4.332;2023-02-21T00:11:54;33.80;;;15.15;;
13493;SDS011;6819;50.886;4.332;2023-02-21T00:14:39;30.77;;;13.20;;
13493;SDS011;6819;50.886;4.332;2023-02-21T00:17:24;28.80;;;13.60;;
13493;SDS011;6819;50.886;4.332;2023-02-21T00:20:08;34.05;;;15.73;;
13493;SDS011;6819;50.886;4.332;2023-02-21T00:22:53;33.88;;;15.65;;
13493;SDS011;6819;50.886;4.332;2023-02-21T00:25:38;32.33;;;13.93;;
13493;SDS011;6819;50.886;4.332;2023-02-21T00:28:22;32.77;;;15.13;;
13493;SDS011;6819;50.886;4.332;2023-02-21T00:31:07;32.35;;;13.98;;
13493;SDS011;6819;50.886;4.332;2023-02-21T00:33:51;35.28;;;16.38;;
13493;SDS011;6819;50.886;4.332;2023-02-21T00:36:36;34.10;;;15.35;;
13493;SDS011;6819;50.886;4.332;2023-02-21T00:39:21;37.85;;;16.65;;
13493;SDS011;6819;50.886;4.332;2023-02-21T00:42:06;44.70;;;17.02;;
13493;SDS011;6819;50.886;4.332;2023-02-21T00:44:50;41.78;;;17.02;;
13493;SDS011;6819;50.886;4.332;2023-02-21T00:47:35;42.13;;;17.02;;
13493;SDS011;6819;50.886;4.332;2023-02-21T00:50:19;38.33;;;16.83;;
13493;SDS011;6819;50.886;4.332;2023-02-21T00:53:04;46.10;;;16.88;;
13493;SDS011;6819;50.886;4.332;2023-02-21T00:55:49;38.50;;;16.90;;
13493;SDS011;6819;50.886;4.332;2023-02-21T00:58:33;42.35;;;17.25;;
13493;SDS011;6819;50.886;4.332;2023-02-21T01:01:18;38.80;;;13.80;;
13493;SDS011;6819;50.886;4.332;2023-02-21T01:04:02;30.38;;;14.90;;
13493;SDS011;6819;50.886;4.332;2023-02-21T01:06:49;29.90;;;14.68;;
13493;SDS011;6819;50.886;4.332;2023-02-21T01:09:33;29.15;;;13.38;;
13493;SDS011;6819;50.886;4.332;2023-02-21T01:12:18;27.80;;;14.25;;
13493;SDS011;6819;50.886;4.332;2023-02-21T01:15:03;32.05;;;14.02;;
13493;SDS011;6819;50.886;4.332;2023-02-21T01:17:48;25.13;;;12.23;;
13493;SDS011;6819;50.886;4.332;2023-02-21T01:20:33;25.55;;;11.45;;
13493;SDS011;6819;50.886;4.332;2023-02-21T01:23:17;26.40;;;11.63;;
13493;SDS011;6819;50.886;4.332;2023-02-21T01:26:02;23.50;;;11.02;;
13493;SDS011;6819;50.886;4.332;2023-02-21T01:28:46;21.30;;;11.00;;
13493;SDS011;6819;50.886;4.332;2023-02-21T01:31:31;30.23;;;10.68;;
13493;SDS011;6819;50.886;4.332;2023-02-21T01:34:16;25.25;;;10.50;;
13493;SDS011;6819;50.886;4.332;2023-02-21T01:37:00;25.38;;;12.48;;
13493;SDS011;6819;50.886;4.332;2023-02-21T01:39:45;25.20;;;11.43;;
13493;SDS011;6819;50.886;4.332;2023-02-21T01:42:29;32.45;;;12.88;;
13493;SDS011;6819;50.886;4.332;2023-02-21T01:48:05;25.77;;;11.43;;
13493;SDS011;6819;50.886;4.332;2023-02-21T01:50:50;28.83;;;12.00;;
13493;SDS011;6819;50.886;4.332;2023-02-21T01:53:36;27.05;;;12.48;;
13493;SDS011;6819;50.886;4.332;2023-02-21T01:56:21;27.13;;;12.13;;
13493;SDS011;6819;50.886;4.332;2023-02-21T01:59:05;31.40;;;11.85;;
13493;SDS011;6819;50.886;4.332;2023-02-21T02:02:00;24.88;;;10.82;;
13493;SDS011;6819;50.886;4.332;2023-02-21T02:04:46;26.90;;;11.63;;
13493;SDS011;6819;50.886;4.332;2023-02-21T02:10:16;26.17;;;9.85;;
13493;SDS011;6819;50.886;4.332;2023-02-21T02:13:09;25.58;;;11.35;;
13493;SDS011;6819;50.886;4.332;2023-02-21T02:15:42;28.92;;;11.85;;
13493;SDS011;6819;50.886;4.332;2023-02-21T02:36:41;31.20;;;12.70;;
13493;SDS011;6819;50.886;4.332;2023-02-21T02:44:34;25.42;;;10.98;;
13493;SDS011;6819;50.886;4.332;2023-02-21T02:46:53;30.48;;;12.25;;
13493;SDS011;6819;50.886;4.332;2023-02-21T02:49:21;26.00;;;12.20;;
13493;SDS011;6819;50.886;4.332;2023-02-21T02:51:48;25.40;;;11.13;;
13493;SDS011;6819;50.886;4.332;2023-02-21T02:54:14;25.45;;;11.15;;
13493;SDS011;6819;50.886;4.332;2023-02-21T02:56:41;22.92;;;10.10;;
13493;SDS011;6819;50.886;4.332;2023-02-21T02:59:18;23.80;;;10.52;;
13493;SDS011;6819;50.886;4.332;2023-02-21T03:09:37;21.55;;;10.43;;
13493;SDS011;6819;50.886;4.332;2023-02-21T03:12:18;28.55;;;11.50;;
13493;SDS011;6819;50.886;4.332;2023-02-21T03:14:57;27.92;;;11.18;;
13493;SDS011;6819;50.886;4.332;2023-02-21T03:17:25;29.08;;;11.65;;
13493;SDS011;6819;50.886;4.332;2023-02-21T03:19:53;25.00;;;10.82;;
13493;SDS011;6819;50.886;4.332;2023-02-21T03:22:21;24.30;;;11.00;;
13493;SDS011;6819;50.886;4.332;2023-02-21T03:24:48;25.75;;;10.65;;
13493;SDS011;6819;50.886;4.332;2023-02-21T03:27:16;26.17;;;11.73;;
13493;SDS011;6819;50.886;4.332;2023-02-21T03:29:42;28.95;;;11.38;;
13493;SDS011;6819;50.886;4.332;2023-02-21T03:32:12;24.90;;;12.23;;
13493;SDS011;6819;50.886;4.332;2023-02-21T03:34:41;24.58;;;9.80;;
13493;SDS011;6819;50.886;4.332;2023-02-21T03:37:10;26.88;;;10.52;;
13493;SDS011;6819;50.886;4.332;2023-02-21T03:39:42;24.10;;;9.85;;
13493;SDS011;6819;50.886;4.332;2023-02-21T03:42:08;25.77;;;10.30;;
13493;SDS011;6819;50.886;4.332;2023-02-21T03:44:34;22.38;;;9.75;;
13493;SDS011;6819;50.886;4.332;2023-02-21T03:47:00;23.02;;;9.93;;
13493;SDS011;6819;50.886;4.332;2023-02-21T03:49:26;29.30;;;10.10;;
13493;SDS011;6819;50.886;4.332;2023-02-21T03:51:52;22.88;;;9.30;;
13493;SDS011;6819;50.886;4.332;2023-02-21T03:54:18;24.85;;;9.90;;
13493;SDS011;6819;50.886;4.332;2023-02-21T03:56:44;25.33;;;10.48;;
13493;SDS011;6819;50.886;4.332;2023-02-21T03:59:10;29.63;;;10.75;;
13493;SDS011;6819;50.886;4.332;2023-02-21T04:01:36;31.52;;;10.52;;
13493;SDS011;6819;50.886;4.332;2023-02-21T04:04:02;29.50;;;10.85;;
13493;SDS011;6819;50.886;4.332;2023-02-21T04:06:28;26.42;;;10.82;;
13493;SDS011;6819;50.886;4.332;2023-02-21T04:08:54;28.20;;;9.85;;
13493;SDS011;6819;50.886;4.332;2023-02-21T04:11:20;27.17;;;9.60;;
13493;SDS011;6819;50.886;4.332;2023-02-21T04:13:46;29.48;;;10.25;;
13493;SDS011;6819;50.886;4.332;2023-02-21T04:16:12;28.63;;;9.65;;
13493;SDS011;6819;50.886;4.332;2023-02-21T04:18:38;28.75;;;10.52;;
13493;SDS011;6819;50.886;4.332;2023-02-21T04:21:05;27.98;;;10.38;;
13493;SDS011;6819;50.886;4.332;2023-02-21T04:23:31;26.73;;;9.32;;
13493;SDS011;6819;50.886;4.332;2023-02-21T04:25:57;23.77;;;9.40;;
13493;SDS011;6819;50.886;4.332;2023-02-21T04:28:23;22.10;;;9.40;;
13493;SDS011;6819;50.886;4.332;2023-02-21T04:30:49;29.23;;;9.45;;
13493;SDS011;6819;50.886;4.332;2023-02-21T04:33:15;26.05;;;9.27;;
13493;SDS011;6819;50.886;4.332;2023-02-21T04:35:41;28.30;;;10.10;;
13493;SDS011;6819;50.886;4.332;2023-02-21T04:38:07;27.77;;;10.27;;
13493;SDS011;6819;50.886;4.332;2023-02-21T04:40:33;27.33;;;9.50;;
13493;SDS011;6819;50.886;4.332;2023-02-21T04:42:59;24.42;;;9.35;;
13493;SDS011;6819;50.886;4.332;2023-02-21T04:45:25;30.00;;;9.57;;
13493;SDS011;6819;50.886;4.332;2023-02-21T04:47:51;29.05;;;9.50;;
13493;SDS011;6819;50.886;4.332;2023-02-21T04:50:17;23.17;;;9.13;;
13493;SDS011;6819;50.886;4.332;2023-02-21T04:52:43;31.33;;;9.50;;
13493;SDS011;6819;50.886;4.332;2023-02-21T04:55:09;22.45;;;8.27;;
13493;SDS011;6819;50.886;4.332;2023-02-21T04:57:35;24.58;;;9.10;;
13493;SDS011;6819;50.886;4.332;2023-02-21T05:00:01;29.50;;;9.80;;
13493;SDS011;6819;50.886;4.332;2023-02-21T05:02:31;30.48;;;10.20;;
13493;SDS011;6819;50.886;4.332;2023-02-21T05:04:57;30.15;;;10.25;;
13493;SDS011;6819;50.886;4.332;2023-02-21T05:07:23;30.13;;;9.82;;
13493;SDS011;6819;50.886;4.332;2023-02-21T05:09:49;29.83;;;10.20;;
13493;SDS011;6819;50.886;4.332;2023-02-21T05:12:16;28.95;;;9.93;;
13493;SDS011;6819;50.886;4.332;2023-02-21T05:14:42;32.72;;;11.02;;
13493;SDS011;6819;50.886;4.332;2023-02-21T05:17:08;31.05;;;9.52;;
13493;SDS011;6819;50.886;4.332;2023-02-21T05:19:34;28.45;;;9.52;;
13493;SDS011;6819;50.886;4.332;2023-02-21T05:22:01;27.80;;;9.13;;
13493;SDS011;6819;50.886;4.332;2023-02-21T05:24:27;23.83;;;8.50;;
13493;SDS011;6819;50.886;4.332;2023-02-21T05:26:54;24.48;;;7.65;;
13493;SDS011;6819;50.886;4.332;2023-02-21T05:29:20;27.00;;;9.32;;
13493;SDS011;6819;50.886;4.332;2023-02-21T05:31:46;25.48;;;8.00;;
13493;SDS011;6819;50.886;4.332;2023-02-21T05:34:12;24.33;;;8.65;;
13493;SDS011;6819;50.886;4.332;2023-02-21T05:36:39;29.02;;;8.40;;
13493;SDS011;6819;50.886;4.332;2023-02-21T05:39:05;26.65;;;7.97;;
13493;SDS011;6819;50.886;4.332;2023-02-21T05:41:32;29.95;;;9.65;;
13493;SDS011;6819;50.886;4.332;2023-02-21T05:43:59;28.60;;;9.57;;
13493;SDS011;6819;50.886;4.332;2023-02-21T05:46:29;30.85;;;8.63;;
13493;SDS011;6819;50.886;4.332;2023-02-21T05:48:56;29.98;;;8.85;;
13493;SDS011;6819;50.886;4.332;2023-02-21T05:51:22;27.70;;;9.48;;
13493;SDS011;6819;50.886;4.332;2023-02-21T05:53:49;23.77;;;9.18;;
13493;SDS011;6819;50.886;4.332;2023-02-21T05:56:15;31.63;;;9.77;;
13493;SDS011;6819;50.886;4.332;2023-02-21T05:58:41;27.20;;;8.13;;
13493;SDS011;6819;50.886;4.332;2023-02-21T06:01:07;24.95;;;8.02;;
13493;SDS011;6819;50.886;4.332;2023-02-21T06:03:33;24.65;;;9.30;;
13493;SDS011;6819;50.886;4.332;2023-02-21T06:06:00;28.88;;;9.43;;
13493;SDS011;6819;50.886;4.332;2023-02-21T06:08:26;26.20;;;7.97;;
13493;SDS011;6819;50.886;4.332;2023-02-21T06:10:52;26.23;;;7.90;;
13493;SDS011;6819;50.886;4.332;2023-02-21T06:13:18;23.60;;;8.27;;
13493;SDS011;6819;50.886;4.332;2023-02-21T06:15:44;28.70;;;9.32;;
13493;SDS011;6819;50.886;4.332;2023-02-21T06:18:14;23.90;;;8.23;;
13493;SDS011;6819;50.886;4.332;2023-02-21T06:20:41;25.35;;;7.70;;
13493;SDS011;6819;50.886;4.332;2023-02-21T06:23:07;28.85;;;9.43;;
13493;SDS011;6819;50.886;4.332;2023-02-21T06:25:33;20.38;;;7.95;;
13493;SDS011;6819;50.886;4.332;2023-02-21T06:27:59;24.35;;;8.10;;
13493;SDS011;6819;50.886;4.332;2023-02-21T06:30:25;21.80;;;7.50;;
13493;SDS011;6819;50.886;4.332;2023-02-21T06:32:51;23.20;;;6.65;;
13493;SDS011;6819;50.886;4.332;2023-02-21T06:35:17;22.60;;;6.95;;
13493;SDS011;6819;50.886;4.332;2023-02-21T06:37:43;17.75;;;6.00;;
13493;SDS011;6819;50.886;4.332;2023-02-21T06:40:09;16.35;;;5.55;;
13493;SDS011;6819;50.886;4.332;2023-02-21T06:42:35;17.65;;;6.20;;
13493;SDS011;6819;50.886;4.332;2023-02-21T06:45:01;17.70;;;5.93;;
13493;SDS011;6819;50.886;4.332;2023-02-21T06:47:27;20.77;;;6.20;;
13493;SDS011;6819;50.886;4.332;2023-02-21T06:49:53;18.10;;;6.43;;
13493;SDS011;6819;50.886;4.332;2023-02-21T06:52:20;23.52;;;6.50;;
13493;SDS011;6819;50.886;4.332;2023-02-21T06:54:48;22.45;;;7.28;;
13493;SDS011;6819;50.886;4.332;2023-02-21T06:57:14;35.83;;;8.27;;
13493;SDS011;6819;50.886;4.332;2023-02-21T06:59:40;27.98;;;7.47;;
13493;SDS011;6819;50.886;4.332;2023-02-21T07:02:07;26.85;;;8.38;;
13493;SDS011;6819;50.886;4.332;2023-02-21T07:04:40;26.45;;;7.60;;
13493;SDS011;6819;50.886;4.332;2023-02-21T07:07:06;25.52;;;8.15;;
13493;SDS011;6819;50.886;4.332;2023-02-21T07:09:32;24.67;;;8.07;;
13493;SDS011;6819;50.886;4.332;2023-02-21T07:11:58;33.08;;;8.88;;
13493;SDS011;6819;50.886;4.332;2023-02-21T07:14:24;27.55;;;8.35;;
13493;SDS011;6819;50.886;4.332;2023-02-21T07:16:50;32.22;;;9.50;;
13493;SDS011;6819;50.886;4.332;2023-02-21T07:19:16;26.75;;;9.18;;
13493;SDS011;6819;50.886;4.332;2023-02-21T07:21:43;33.20;;;9.68;;
13493;SDS011;6819;50.886;4.332;2023-02-21T07:24:09;33.05;;;8.63;;
13493;SDS011;6819;50.886;4.332;2023-02-21T07:26:36;30.42;;;8.48;;
13493;SDS011;6819;50.886;4.332;2023-02-21T07:29:02;29.00;;;8.77;;
13493;SDS011;6819;50.886;4.332;2023-02-21T07:31:28;28.70;;;8.57;;
13493;SDS011;6819;50.886;4.332;2023-02-21T07:33:54;27.25;;;9.38;;
13493;SDS011;6819;50.886;4.332;2023-02-21T07:36:20;23.58;;;8.27;;
13493;SDS011;6819;50.886;4.332;2023-02-21T07:38:47;33.67;;;10.05;;
13493;SDS011;6819;50.886;4.332;2023-02-21T07:41:13;30.90;;;8.77;;
13493;SDS011;6819;50.886;4.332;2023-02-21T07:43:40;26.05;;;7.45;;
13493;SDS011;6819;50.886;4.332;2023-02-21T07:46:10;30.10;;;8.18;;
13493;SDS011;6819;50.886;4.332;2023-02-21T07:48:36;26.60;;;8.15;;
13493;SDS011;6819;50.886;4.332;2023-02-21T07:51:02;30.27;;;8.45;;
13493;SDS011;6819;50.886;4.332;2023-02-21T07:53:28;30.23;;;9.50;;
13493;SDS011;6819;50.886;4.332;2023-02-21T07:55:54;29.13;;;8.63;;
13493;SDS011;6819;50.886;4.332;2023-02-21T07:58:20;33.45;;;10.40;;
13493;SDS011;6819;50.886;4.332;2023-02-21T08:00:46;42.90;;;11.55;;
13493;SDS011;6819;50.886;4.332;2023-02-21T08:03:12;36.85;;;10.63;;
13493;SDS011;6819;50.886;4.332;2023-02-21T08:05:38;34.47;;;10.90;;
13493;SDS011;6819;50.886;4.332;2023-02-21T08:08:07;36.15;;;11.88;;
13493;SDS011;6819;50.886;4.332;2023-02-21T08:10:34;40.08;;;10.93;;
13493;SDS011;6819;50.886;4.332;2023-02-21T08:13:00;37.67;;;12.15;;
13493;SDS011;6819;50.886;4.332;2023-02-21T08:15:26;40.50;;;11.48;;
13493;SDS011;6819;50.886;4.332;2023-02-21T08:17:53;39.55;;;12.48;;
13493;SDS011;6819;50.886;4.332;2023-02-21T08:20:19;37.50;;;11.43;;
13493;SDS011;6819;50.886;4.332;2023-02-21T08:22:45;34.63;;;10.30;;
13493;SDS011;6819;50.886;4.332;2023-02-21T08:25:12;35.38;;;10.75;;
13493;SDS011;6819;50.886;4.332;2023-02-21T08:27:39;31.98;;;10.48;;
13493;SDS011;6819;50.886;4.332;2023-02-21T08:30:05;33.80;;;10.93;;
13493;SDS011;6819;50.886;4.332;2023-02-21T08:32:33;34.50;;;10.00;;
13493;SDS011;6819;50.886;4.332;2023-02-21T08:34:59;33.88;;;10.75;;
13493;SDS011;6819;50.886;4.332;2023-02-21T08:37:27;35.30;;;11.10;;
13493;SDS011;6819;50.886;4.332;2023-02-21T08:39:57;29.73;;;10.10;;
13493;SDS011;6819;50.886;4.332;2023-02-21T08:42:23;36.88;;;10.80;;
13493;SDS011;6819;50.886;4.332;2023-02-21T08:44:49;40.88;;;11.38;;
13493;SDS011;6819;50.886;4.332;2023-02-21T08:47:15;41.67;;;12.52;;
13493;SDS011;6819;50.886;4.332;2023-02-21T08:49:45;37.95;;;11.63;;
13493;SDS011;6819;50.886;4.332;2023-02-21T08:52:12;39.15;;;10.57;;
13493;SDS011;6819;50.886;4.332;2023-02-21T08:54:38;31.65;;;10.63;;
13493;SDS011;6819;50.886;4.332;2023-02-21T08:57:05;34.40;;;10.57;;
13493;SDS011;6819;50.886;4.332;2023-02-21T08:59:31;29.90;;;9.75;;
13493;SDS011;6819;50.886;4.332;2023-02-21T09:01:58;25.02;;;8.68;;
13493;SDS011;6819;50.886;4.332;2023-02-21T09:04:24;27.80;;;9.30;;
13493;SDS011;6819;50.886;4.332;2023-02-21T09:06:54;30.38;;;9.63;;
13493;SDS011;6819;50.886;4.332;2023-02-21T09:09:20;24.63;;;8.77;;
13493;SDS011;6819;50.886;4.332;2023-02-21T09:11:46;25.10;;;9.32;;
13493;SDS011;6819;50.886;4.332;2023-02-21T09:14:13;26.55;;;10.00;;
13493;SDS011;6819;50.886;4.332;2023-02-21T09:16:40;32.30;;;9.40;;
13493;SDS011;6819;50.886;4.332;2023-02-21T09:19:07;27.85;;;7.82;;
13493;SDS011;6819;50.886;4.332;2023-02-21T09:21:33;25.52;;;9.32;;
13493;SDS011;6819;50.886;4.332;2023-02-21T09:23:59;23.00;;;7.65;;
13493;SDS011;6819;50.886;4.332;2023-02-21T09:26:27;22.58;;;8.70;;
13493;SDS011;6819;50.886;4.332;2023-02-21T09:28:56;21.20;;;7.72;;
13493;SDS011;6819;50.886;4.332;2023-02-21T09:31:22;30.58;;;9.50;;
13493;SDS011;6819;50.886;4.332;2023-02-21T09:33:48;30.55;;;9.23;;
13493;SDS011;6819;50.886;4.332;2023-02-21T09:36:14;23.52;;;8.98;;
13493;SDS011;6819;50.886;4.332;2023-02-21T09:38:40;29.95;;;8.93;;
13493;SDS011;6819;50.886;4.332;2023-02-21T09:41:08;28.73;;;9.50;;
13493;SDS011;6819;50.886;4.332;2023-02-21T09:43:39;31.95;;;9.68;;
13493;SDS011;6819;50.886;4.332;2023-02-21T09:46:15;27.23;;;9.55;;
13493;SDS011;6819;50.886;4.332;2023-02-21T09:48:42;29.15;;;10.60;;
13493;SDS011;6819;50.886;4.332;2023-02-21T09:51:10;27.88;;;10.15;;
13493;SDS011;6819;50.886;4.332;2023-02-21T09:53:37;26.88;;;9.38;;
13493;SDS011;6819;50.886;4.332;2023-02-21T09:56:46;29.40;;;10.32;;
13493;SDS011;6819;50.886;4.332;2023-02-21T09:58:53;32.88;;;10.15;;
13493;SDS011;6819;50.886;4.332;2023-02-21T10:01:39;28.02;;;10.73;;
13493;SDS011;6819;50.886;4.332;2023-02-21T10:06:43;32.10;;;9.93;;
13493;SDS011;6819;50.886;4.332;2023-02-21T10:09:17;33.42;;;10.52;;
13493;SDS011;6819;50.886;4.332;2023-02-21T10:14:54;26.83;;;9.40;;
13493;SDS011;6819;50.886;4.332;2023-02-21T10:17:38;26.00;;;8.48;;
13493;SDS011;6819;50.886;4.332;2023-02-21T10:20:10;27.20;;;8.75;;
13493;SDS011;6819;50.886;4.332;2023-02-21T10:22:39;24.25;;;8.15;;
13493;SDS011;6819;50.886;4.332;2023-02-21T10:27:55;28.75;;;8.55;;
13493;SDS011;6819;50.886;4.332;2023-02-21T10:30:26;19.70;;;8.05;;
13493;SDS011;6819;50.886;4.332;2023-02-21T10:32:53;22.27;;;7.65;;
13493;SDS011;6819;50.886;4.332;2023-02-21T10:35:19;24.67;;;8.85;;
13493;SDS011;6819;50.886;4.332;2023-02-21T10:37:46;18.13;;;6.95;;
13493;SDS011;6819;50.886;4.332;2023-02-21T10:42:42;20.63;;;8.00;;
13493;SDS011;6819;50.886;4.332;2023-02-21T10:45:11;19.92;;;7.55;;
13493;SDS011;6819;50.886;4.332;2023-02-21T10:50:09;20.95;;;7.70;;
13493;SDS011;6819;50.886;4.332;2023-02-21T10:52:46;18.95;;;7.50;;
13493;SDS011;6819;50.886;4.332;2023-02-21T10:55:15;19.88;;;7.05;;
13493;SDS011;6819;50.886;4.332;2023-02-21T10:57:42;17.63;;;7.45;;
13493;SDS011;6819;50.886;4.332;2023-02-21T11:00:09;21.17;;;7.95;;
13493;SDS011;6819;50.886;4.332;2023-02-21T11:02:44;20.77;;;8.02;;
13493;SDS011;6819;50.886;4.332;2023-02-21T11:05:15;25.05;;;8.05;;
13493;SDS011;6819;50.886;4.332;2023-02-21T11:08:03;25.75;;;8.95;;
13493;SDS011;6819;50.886;4.332;2023-02-21T11:13:01;20.58;;;7.32;;
13493;SDS011;6819;50.886;4.332;2023-02-21T11:15:27;24.45;;;9.65;;
13493;SDS011;6819;50.886;4.332;2023-02-21T11:18:04;18.10;;;8.70;;
13493;SDS011;6819;50.886;4.332;2023-02-21T11:20:30;23.95;;;9.05;;
13493;SDS011;6819;50.886;4.332;2023-02-21T11:22:57;16.73;;;7.80;;
13493;SDS011;6819;50.886;4.332;2023-02-21T11:30:24;20.02;;;8.45;;
13493;SDS011;6819;50.886;4.332;2023-02-21T11:32:51;17.90;;;8.00;;
13493;SDS011;6819;50.886;4.332;2023-02-21T11:37:49;15.93;;;7.03;;
13493;SDS011;6819;50.886;4.332;2023-02-21T11:46:03;18.30;;;6.95;;
13493;SDS011;6819;50.886;4.332;2023-02-21T11:48:37;15.05;;;6.30;;
13493;SDS011;6819;50.886;4.332;2023-02-21T11:51:12;17.95;;;6.90;;
13493;SDS011;6819;50.886;4.332;2023-02-21T11:53:41;14.60;;;6.30;;
13493;SDS011;6819;50.886;4.332;2023-02-21T12:01:21;11.82;;;6.30;;
13493;SDS011;6819;50.886;4.332;2023-02-21T12:06:24;12.68;;;5.80;;
13493;SDS011;6819;50.886;4.332;2023-02-21T12:09:11;13.98;;;5.35;;
13493;SDS011;6819;50.886;4.332;2023-02-21T12:40:08;13.75;;;6.85;;
13493;SDS011;6819;50.886;4.332;2023-02-21T12:50:29;16.50;;;6.95;;
13493;SDS011;6819;50.886;4.332;2023-02-21T12:53:00;16.20;;;6.55;;
13493;SDS011;6819;50.886;4.332;2023-02-21T13:00:56;16.13;;;6.47;;
13493;SDS011;6819;50.886;4.332;2023-02-21T13:05:55;15.65;;;6.80;;
13493;SDS011;6819;50.886;4.332;2023-02-21T13:08:25;14.70;;;6.80;;
13493;SDS011;6819;50.886;4.332;2023-02-21T13:10:55;15.77;;;8.18;;
13493;SDS011;6819;50.886;4.332;2023-02-21T13:13:28;16.35;;;6.25;;
13493;SDS011;6819;50.886;4.332;2023-02-21T13:15:56;15.98;;;6.93;;
13493;SDS011;6819;50.886;4.332;2023-02-21T13:18:27;22.52;;;8.23;;
13493;SDS011;6819;50.886;4.332;2023-02-21T13:21:12;20.70;;;8.52;;
13493;SDS011;6819;50.886;4.332;2023-02-21T13:23:43;21.27;;;8.02;;
13493;SDS011;6819;50.886;4.332;2023-02-21T13:28:58;14.82;;;7.57;;
13493;SDS011;6819;50.886;4.332;2023-02-21T13:31:25;16.80;;;7.72;;
13493;SDS011;6819;50.886;4.332;2023-02-21T13:33:58;16.23;;;7.80;;
13493;SDS011;6819;50.886;4.332;2023-02-21T13:36:32;17.75;;;7.15;;
13493;SDS011;6819;50.886;4.332;2023-02-21T13:41:35;18.63;;;8.20;;
13493;SDS011;6819;50.886;4.332;2023-02-21T13:44:10;14.32;;;8.02;;
13493;SDS011;6819;50.886;4.332;2023-02-21T13:51:48;19.73;;;8.70;;
13493;SDS011;6819;50.886;4.332;2023-02-21T13:54:23;16.90;;;8.52;;
13493;SDS011;6819;50.886;4.332;2023-02-21T13:56:50;21.48;;;9.60;;
13493;SDS011;6819;50.886;4.332;2023-02-21T14:01:49;20.83;;;9.57;;
13493;SDS011;6819;50.886;4.332;2023-02-21T14:07:00;21.50;;;10.27;;
13493;SDS011;6819;50.886;4.332;2023-02-21T14:09:26;23.63;;;10.93;;
13493;SDS011;6819;50.886;4.332;2023-02-21T14:11:52;23.65;;;10.82;;
13493;SDS011;6819;50.886;4.332;2023-02-21T14:14:26;23.02;;;10.63;;
13493;SDS011;6819;50.886;4.332;2023-02-21T14:17:03;22.83;;;10.87;;
13493;SDS011;6819;50.886;4.332;2023-02-21T14:22:01;23.60;;;11.50;;
13493;SDS011;6819;50.886;4.332;2023-02-21T14:24:31;23.25;;;11.43;;
13493;SDS011;6819;50.886;4.332;2023-02-21T14:27:03;20.13;;;9.57;;
13493;SDS011;6819;50.886;4.332;2023-02-21T14:29:38;22.67;;;10.85;;
13493;SDS011;6819;50.886;4.332;2023-02-21T14:34:38;19.05;;;9.35;;
13493;SDS011;6819;50.886;4.332;2023-02-21T14:37:37;18.42;;;9.05;;
13493;SDS011;6819;50.886;4.332;2023-02-21T14:39:52;20.52;;;10.52;;
13493;SDS011;6819;50.886;4.332;2023-02-21T14:42:25;25.63;;;9.18;;
13493;SDS011;6819;50.886;4.332;2023-02-21T14:50:07;19.33;;;8.82;;
13493;SDS011;6819;50.886;4.332;2023-02-21T15:00:38;18.88;;;9.00;;
13493;SDS011;6819;50.886;4.332;2023-02-21T15:05:43;18.20;;;8.80;;
13493;SDS011;6819;50.886;4.332;2023-02-21T15:10:40;18.70;;;8.77;;
13493;SDS011;6819;50.886;4.332;2023-02-21T15:13:06;22.20;;;8.27;;
13493;SDS011;6819;50.886;4.332;2023-02-21T15:15:44;17.42;;;8.48;;
13493;SDS011;6819;50.886;4.332;2023-02-21T15:18:12;20.15;;;10.02;;
13493;SDS011;6819;50.886;4.332;2023-02-21T15:20:59;25.55;;;10.27;;
13493;SDS011;6819;50.886;4.332;2023-02-21T15:23:26;18.98;;;9.05;;
13493;SDS011;6819;50.886;4.332;2023-02-21T15:25:57;19.70;;;9.00;;
13493;SDS011;6819;50.886;4.332;2023-02-21T15:28:28;17.13;;;8.45;;
13493;SDS011;6819;50.886;4.332;2023-02-21T15:30:57;18.20;;;9.10;;
13493;SDS011;6819;50.886;4.332;2023-02-21T15:33:24;16.67;;;7.75;;
13493;SDS011;6819;50.886;4.332;2023-02-21T15:35:55;19.20;;;9.02;;
13493;SDS011;6819;50.886;4.332;2023-02-21T15:38:29;19.67;;;8.82;;
13493;SDS011;6819;50.886;4.332;2023-02-21T15:41:20;15.48;;;8.23;;
13493;SDS011;6819;50.886;4.332;2023-02-21T15:46:13;18.75;;;8.85;;
13493;SDS011;6819;50.886;4.332;2023-02-21T15:48:40;17.85;;;8.70;;
13493;SDS011;6819;50.886;4.332;2023-02-21T15:51:06;20.67;;;8.57;;
13493;SDS011;6819;50.886;4.332;2023-02-21T15:53:34;18.75;;;8.70;;
13493;SDS011;6819;50.886;4.332;2023-02-21T15:56:23;17.85;;;8.98;;
13493;SDS011;6819;50.886;4.332;2023-02-21T16:01:33;16.10;;;7.55;;
13493;SDS011;6819;50.886;4.332;2023-02-21T16:04:16;13.68;;;6.68;;
13493;SDS011;6819;50.886;4.332;2023-02-21T16:06:46;13.10;;;7.22;;
13493;SDS011;6819;50.886;4.332;2023-02-21T16:11:47;17.77;;;7.63;;
13493;SDS011;6819;50.886;4.332;2023-02-21T16:14:18;17.15;;;7.88;;
13493;SDS011;6819;50.886;4.332;2023-02-21T16:16:45;17.63;;;6.28;;
13493;SDS011;6819;50.886;4.332;2023-02-21T16:19:17;16.30;;;7.72;;
13493;SDS011;6819;50.886;4.332;2023-02-21T16:21:43;17.70;;;7.93;;
13493;SDS011;6819;50.886;4.332;2023-02-21T16:24:28;16.58;;;8.77;;
13493;SDS011;6819;50.886;4.332;2023-02-21T16:29:49;14.38;;;7.30;;
13493;SDS011;6819;50.886;4.332;2023-02-21T16:32:16;18.35;;;7.75;;
13493;SDS011;6819;50.886;4.332;2023-02-21T16:34:43;18.20;;;8.48;;
13493;SDS011;6819;50.886;4.332;2023-02-21T16:37:10;16.40;;;7.53;;
13493;SDS011;6819;50.886;4.332;2023-02-21T16:39:38;17.20;;;9.02;;
13493;SDS011;6819;50.886;4.332;2023-02-21T16:42:04;15.05;;;7.80;;
13493;SDS011;6819;50.886;4.332;2023-02-21T16:44:30;17.80;;;9.20;;
13493;SDS011;6819;50.886;4.332;2023-02-21T16:46:56;20.52;;;9.93;;
13493;SDS011;6819;50.886;4.332;2023-02-21T16:49:23;16.48;;;8.80;;
13493;SDS011;6819;50.886;4.332;2023-02-21T16:51:49;17.58;;;9.18;;
13493;SDS011;6819;50.886;4.332;2023-02-21T16:54:15;17.80;;;9.07;;
13493;SDS011;6819;50.886;4.332;2023-02-21T16:56:41;16.73;;;7.93;;
13493;SDS011;6819;50.886;4.332;2023-02-21T16:59:14;17.88;;;8.20;;
13493;SDS011;6819;50.886;4.332;2023-02-21T17:01:41;15.90;;;7.72;;
13493;SDS011;6819;50.886;4.332;2023-02-21T17:04:18;17.08;;;9.10;;
13493;SDS011;6819;50.886;4.332;2023-02-21T17:06:59;15.63;;;8.60;;
13493;SDS011;6819;50.886;4.332;2023-02-21T17:09:26;15.90;;;8.30;;
13493;SDS011;6819;50.886;4.332;2023-02-21T17:11:53;17.85;;;8.50;;
13493;SDS011;6819;50.886;4.332;2023-02-21T17:14:19;15.77;;;9.07;;
13493;SDS011;6819;50.886;4.332;2023-02-21T17:16:46;15.93;;;8.40;;
13493;SDS011;6819;50.886;4.332;2023-02-21T17:19:13;18.92;;;8.18;;
13493;SDS011;6819;50.886;4.332;2023-02-21T17:21:39;14.93;;;7.75;;
13493;SDS011;6819;50.886;4.332;2023-02-21T17:24:06;15.88;;;8.82;;
13493;SDS011;6819;50.886;4.332;2023-02-21T17:26:32;19.05;;;8.25;;
13493;SDS011;6819;50.886;4.332;2023-02-21T17:28:58;15.02;;;8.25;;
13493;SDS011;6819;50.886;4.332;2023-02-21T17:31:24;23.00;;;9.75;;
13493;SDS011;6819;50.886;4.332;2023-02-21T17:33:50;14.60;;;8.73;;
13493;SDS011;6819;50.886;4.332;2023-02-21T17:36:17;18.25;;;9.07;;
13493;SDS011;6819;50.886;4.332;2023-02-21T17:38:43;15.88;;;7.85;;
13493;SDS011;6819;50.886;4.332;2023-02-21T17:41:10;14.07;;;8.18;;
13493;SDS011;6819;50.886;4.332;2023-02-21T17:43:36;13.45;;;8.35;;
13493;SDS011;6819;50.886;4.332;2023-02-21T17:46:02;14.95;;;7.82;;
13493;SDS011;6819;50.886;4.332;2023-02-21T17:48:28;18.25;;;8.40;;
13493;SDS011;6819;50.886;4.332;2023-02-21T17:50:54;18.33;;;8.70;;